IN-0066 weather

Madhubani Airport
Bihar, India

Public forecast

Using degrees Celsius for public forecast. Weather courtesy of forecast.io.

METAR (pilot weather report)

Closest report is Lok Nayak Jayaprakash Airport, 68.7 nm (127.2 km) SW. Retrieved 2018/05/27 23:00 UTC (46 seconds ago):

VEPT 272300Z 13003KT 3000 HZ SCT020 BKN100 29/26 Q0999 NOSIG

TAF (pilot weather forecast)

Forecast is more than 6 hours old.

Closest forecast is Lok Nayak Jayaprakash Airport, 68.7 nm (127.2 km) SW. Retrieved 2018/05/27 12:45 UTC (10 hours ago):

TAF VEPT 271100Z 2712/2818 09005KT 5000 HZ SCT100 BECMG 2718/2720 05008KT 4000 HZ/-TSRA SCT015 FEW030CB BKN100 BECMG 2723/2801 09010KT 3000 HZ SCT020 BKN100 BECMG 2804/2806 05005KT 4000 HZ BECMG 2808/2810 5000 HZ NSC BECMG 2814/2816 02010KT 4000 HZ/-TSRA SCT018 FEW030CB BKN100